Time;durP1;ratioP1;P1;durP2;ratioP2;P2;SDS_P1;SDS_P2;PMS_P1;PMS_P2;Temp;Humidity;BMP_temperature;BMP_pressure;BME280_temperature;BME280_humidity;BME280_pressure;Samples;Min_cycle;Max_cycle;Signal;HPM_P1;HPM_P2
2021/07/02 00:00:20;;;;;;;28.00;20.88;;;16.90;99.90;;;;;;2089968;28;20057;-69
2021/07/02 00:01:21;;;;;;;29.55;21.30;;;16.90;99.90;;;;;;2089888;28;20021;-69
2021/07/02 00:02:22;;;;;;;30.60;23.25;;;16.90;99.90;;;;;;2089486;28;20025;-69
2021/07/02 00:03:22;;;;;;;28.10;22.83;;;16.90;99.90;;;;;;2090035;28;20083;-69
2021/07/02 00:04:24;;;;;;;33.05;23.05;;;16.90;99.90;;;;;;2089889;28;20021;-69
2021/07/02 00:05:24;;;;;;;27.58;21.50;;;16.90;99.90;;;;;;2090129;28;20025;-69
2021/07/02 00:06:25;;;;;;;32.42;23.42;;;16.90;99.90;;;;;;2089768;28;20100;-69
2021/07/02 00:07:25;;;;;;;27.90;22.48;;;16.90;99.90;;;;;;2090073;28;20377;-69
2021/07/02 00:08:26;;;;;;;29.83;23.35;;;16.90;99.90;;;;;;2089996;28;20025;-69
2021/07/02 00:09:27;;;;;;;30.23;23.17;;;16.90;99.90;;;;;;2090174;28;20044;-69
2021/07/02 00:10:28;;;;;;;34.67;22.63;;;17.00;99.90;;;;;;2089692;28;20028;-69
2021/07/02 00:11:28;;;;;;;31.48;24.30;;;16.90;99.90;;;;;;2089672;28;20032;-69
2021/07/02 00:12:29;;;;;;;34.92;23.75;;;17.00;99.90;;;;;;2089736;28;20036;-69
2021/07/02 00:13:29;;;;;;;28.90;22.60;;;16.90;99.90;;;;;;2090157;28;20025;-69
2021/07/02 00:14:30;;;;;;;30.23;22.33;;;17.00;99.90;;;;;;2089809;28;20479;-69
2021/07/02 00:15:31;;;;;;;28.05;22.70;;;16.90;99.90;;;;;;2089801;28;20516;-69
2021/07/02 00:16:33;;;;;;;29.50;21.98;;;17.00;99.90;;;;;;2089099;28;20029;-69
2021/07/02 00:17:34;;;;;;;30.85;23.52;;;16.90;99.90;;;;;;2090091;28;20017;-69
2021/07/02 00:18:34;;;;;;;29.75;23.48;;;16.90;99.90;;;;;;2089238;28;20017;-69
2021/07/02 00:19:35;;;;;;;27.13;20.83;;;17.00;99.90;;;;;;2089393;28;20063;-69
2021/07/02 00:20:36;;;;;;;29.52;22.67;;;17.00;99.90;;;;;;2089869;28;20040;-69
2021/07/02 00:21:36;;;;;;;27.95;22.50;;;17.00;99.90;;;;;;2089368;28;20021;-69
2021/07/02 00:22:37;;;;;;;27.08;19.98;;;16.90;99.90;;;;;;2089620;28;20479;-69
2021/07/02 00:23:37;;;;;;;33.75;23.42;;;17.00;99.90;;;;;;2089971;28;20453;-69
2021/07/02 00:24:38;;;;;;;33.40;23.15;;;16.90;99.90;;;;;;2089583;28;20025;-69
2021/07/02 00:25:39;;;;;;;29.67;22.92;;;17.00;99.90;;;;;;2089268;28;20479;-69
2021/07/02 00:26:39;;;;;;;31.15;23.70;;;16.90;99.90;;;;;;2089197;28;20040;-69
2021/07/02 00:27:40;;;;;;;24.95;19.77;;;17.00;99.90;;;;;;2089840;28;20021;-69
2021/07/02 00:28:41;;;;;;;30.77;23.08;;;16.90;99.90;;;;;;2090106;28;20100;-69
2021/07/02 00:29:41;;;;;;;26.30;20.83;;;17.00;99.90;;;;;;2089357;28;20029;-69
2021/07/02 00:30:42;;;;;;;32.35;22.58;;;17.00;99.90;;;;;;2089990;28;20057;-69
2021/07/02 00:31:42;;;;;;;32.45;23.48;;;17.00;99.90;;;;;;2088915;28;20535;-69
2021/07/02 00:32:43;;;;;;;31.30;22.13;;;17.00;99.90;;;;;;2089733;28;20082;-69
2021/07/02 00:33:44;;;;;;;31.73;21.35;;;16.90;99.90;;;;;;2089816;28;20460;-69
2021/07/02 00:34:44;;;;;;;27.23;21.95;;;16.90;99.90;;;;;;2089942;28;20036;-69
2021/07/02 00:35:45;;;;;;;30.02;21.50;;;17.00;99.90;;;;;;2088929;28;20032;-69
2021/07/02 00:36:46;;;;;;;28.25;20.67;;;17.00;99.90;;;;;;2089362;28;20017;-69
2021/07/02 00:37:46;;;;;;;31.92;21.65;;;17.00;99.90;;;;;;2089654;28;20017;-69
2021/07/02 00:38:47;;;;;;;29.80;22.05;;;17.00;99.90;;;;;;2089263;28;20041;-69
2021/07/02 00:39:48;;;;;;;25.13;19.27;;;17.00;99.90;;;;;;2088808;28;20032;-69
2021/07/02 00:40:48;;;;;;;27.67;22.58;;;17.00;99.90;;;;;;2089867;28;20025;-69
2021/07/02 00:41:49;;;;;;;27.95;21.33;;;17.00;99.90;;;;;;2089168;28;20039;-69
2021/07/02 00:42:49;;;;;;;35.72;25.25;;;16.90;99.90;;;;;;2089824;28;20384;-69
2021/07/02 00:43:56;;;;;;;31.95;23.83;;;17.00;99.90;;;;;;2089648;28;20079;-69
2021/07/02 00:44:57;;;;;;;30.67;22.05;;;17.00;99.90;;;;;;2089736;28;20052;-69
2021/07/02 00:45:57;;;;;;;28.10;21.15;;;17.00;99.90;;;;;;2089780;28;20025;-69
2021/07/02 00:46:58;;;;;;;37.42;24.63;;;17.00;99.90;;;;;;2089551;28;20155;-69
2021/07/02 00:48:00;;;;;;;30.85;24.08;;;17.00;99.90;;;;;;2089423;28;20037;-69
2021/07/02 00:49:01;;;;;;;35.90;23.10;;;17.00;99.90;;;;;;2089809;28;20036;-69
2021/07/02 00:50:03;;;;;;;27.83;20.92;;;17.00;99.90;;;;;;2089635;28;20025;-69
2021/07/02 00:51:04;;;;;;;30.75;20.50;;;17.00;99.90;;;;;;2089879;28;20037;-69
2021/07/02 00:52:06;;;;;;;36.92;24.67;;;17.00;99.90;;;;;;2088963;28;20036;-69
2021/07/02 00:53:07;;;;;;;31.42;22.33;;;17.00;99.90;;;;;;2089916;28;20384;-69
2021/07/02 00:54:10;;;;;;;29.95;23.08;;;17.00;99.90;;;;;;2089661;28;20025;-69
2021/07/02 00:55:11;;;;;;;33.10;23.40;;;17.00;99.90;;;;;;2089739;28;20013;-69
2021/07/02 00:56:16;;;;;;;36.20;22.80;;;17.00;99.90;;;;;;2089252;28;20028;-69
2021/07/02 00:57:17;;;;;;;32.42;20.70;;;17.00;99.90;;;;;;2089720;28;20108;-69
2021/07/02 00:58:19;;;;;;;26.95;20.13;;;17.00;99.90;;;;;;2089669;28;20461;-69
2021/07/02 00:59:20;;;;;;;28.70;22.25;;;16.90;99.90;;;;;;2089643;28;20040;-69
2021/07/02 01:00:21;;;;;;;29.15;22.00;;;16.90;99.90;;;;;;2089248;28;20503;-69
2021/07/02 01:01:21;;;;;;;24.30;20.00;;;16.90;99.90;;;;;;2089551;28;20052;-69
2021/07/02 01:02:22;;;;;;;23.30;18.27;;;16.90;99.90;;;;;;2089288;28;20052;-69
2021/07/02 01:03:23;;;;;;;29.17;20.95;;;16.90;99.90;;;;;;2089480;28;20476;-69
2021/07/02 01:04:24;;;;;;;26.58;20.63;;;16.90;99.90;;;;;;2089250;28;20431;-69
2021/07/02 01:05:24;;;;;;;34.47;22.83;;;17.00;99.90;;;;;;2089340;28;20028;-69
2021/07/02 01:06:25;;;;;;;31.02;20.80;;;16.90;99.90;;;;;;2089207;28;20029;-69
2021/07/02 01:07:26;;;;;;;29.90;21.02;;;16.90;99.90;;;;;;2089309;28;20052;-69
2021/07/02 01:08:26;;;;;;;25.23;19.77;;;16.90;99.90;;;;;;2089017;28;20104;-69
2021/07/02 01:09:36;;;;;;;30.85;21.25;;;16.90;99.90;;;;;;2089126;28;20027;-69
2021/07/02 01:10:37;;;;;;;27.13;20.88;;;16.90;99.90;;;;;;2091764;28;20032;-69
2021/07/02 01:11:38;;;;;;;28.77;21.55;;;16.90;99.90;;;;;;2092658;28;20460;-69
2021/07/02 01:12:40;;;;;;;28.02;20.67;;;16.90;99.90;;;;;;2093984;28;20031;-69
2021/07/02 01:13:41;;;;;;;29.08;21.73;;;16.90;99.90;;;;;;2093144;28;20107;-69
2021/07/02 01:14:41;;;;;;;30.67;21.90;;;16.90;99.90;;;;;;2089351;28;20021;-69
2021/07/02 01:15:42;;;;;;;26.77;20.92;;;16.90;99.90;;;;;;2089316;28;20056;-69
2021/07/02 01:16:42;;;;;;;22.40;18.75;;;16.90;99.90;;;;;;2089596;28;20597;-69
2021/07/02 01:17:43;;;;;;;27.70;22.05;;;16.90;99.90;;;;;;2089675;28;20013;-69
2021/07/02 01:18:44;;;;;;;32.78;22.65;;;16.90;99.90;;;;;;2089434;28;20017;-69
2021/07/02 01:19:50;;;;;;;26.65;20.05;;;16.90;99.90;;;;;;2089420;28;20063;-69
2021/07/02 01:20:56;;;;;;;34.30;22.83;;;16.90;99.90;;;;;;2089488;28;20017;-69
2021/07/02 01:21:57;;;;;;;32.70;23.23;;;16.90;99.90;;;;;;2089151;28;20032;-69
2021/07/02 01:22:57;;;;;;;41.45;23.27;;;16.90;99.90;;;;;;2089406;28;20029;-69
2021/07/02 01:23:58;;;;;;;29.90;21.15;;;16.90;99.90;;;;;;2089438;28;20025;-69
2021/07/02 01:24:59;;;;;;;36.10;24.58;;;16.80;99.90;;;;;;2089283;28;20086;-69
2021/07/02 01:25:59;;;;;;;26.67;19.70;;;16.90;99.90;;;;;;2089248;28;20033;-69
2021/07/02 01:27:01;;;;;;;32.53;23.58;;;16.90;99.90;;;;;;2089347;28;20043;-69
2021/07/02 01:28:02;;;;;;;32.80;23.48;;;16.80;99.90;;;;;;2089653;28;20061;-69
2021/07/02 01:29:03;;;;;;;33.65;23.00;;;16.90;99.90;;;;;;2089467;28;20365;-69
2021/07/02 01:30:08;;;;;;;33.38;23.40;;;16.90;99.90;;;;;;2089509;28;20044;-69
2021/07/02 01:31:09;;;;;;;29.38;21.50;;;16.90;99.90;;;;;;2088373;28;20060;-69
2021/07/02 01:32:10;;;;;;;31.05;22.60;;;16.80;99.90;;;;;;2088296;28;20025;-69
2021/07/02 01:33:12;;;;;;;35.00;23.45;;;16.80;99.90;;;;;;2089105;28;20072;-69
2021/07/02 01:34:13;;;;;;;30.13;22.75;;;16.90;99.90;;;;;;2089608;28;20025;-69
2021/07/02 01:35:13;;;;;;;37.58;23.83;;;16.80;99.90;;;;;;2089184;28;20096;-69
2021/07/02 01:36:23;;;;;;;33.20;23.67;;;16.90;99.90;;;;;;2089313;28;20639;-69
2021/07/02 01:37:23;;;;;;;27.48;19.60;;;16.80;99.90;;;;;;2089045;28;20039;-69
2021/07/02 01:38:24;;;;;;;31.20;22.02;;;16.80;99.90;;;;;;2089680;28;20472;-69
2021/07/02 01:39:24;;;;;;;29.83;20.73;;;16.80;99.90;;;;;;2089168;28;20022;-69
2021/07/02 01:40:25;;;;;;;27.20;21.42;;;16.80;99.90;;;;;;2089319;28;20048;-69
2021/07/02 01:41:25;;;;;;;28.10;22.75;;;16.80;99.90;;;;;;2088786;28;20093;-69
2021/07/02 01:42:26;;;;;;;33.55;23.25;;;16.80;99.90;;;;;;2089139;28;20017;-69
2021/07/02 01:43:27;;;;;;;37.45;24.77;;;16.80;99.90;;;;;;2089322;28;20052;-69
2021/07/02 01:44:27;;;;;;;32.65;22.48;;;16.90;99.90;;;;;;2096953;28;20028;-69
2021/07/02 01:45:28;;;;;;;33.90;24.55;;;16.90;99.90;;;;;;2096919;28;20676;-69
2021/07/02 01:46:29;;;;;;;32.47;23.73;;;16.80;99.90;;;;;;2089546;28;20037;-69
2021/07/02 01:47:29;;;;;;;33.58;24.00;;;16.80;99.90;;;;;;2089144;28;20024;-69
2021/07/02 01:48:30;;;;;;;24.25;20.45;;;16.80;99.90;;;;;;2089345;28;20059;-69
2021/07/02 01:49:31;;;;;;;34.10;23.27;;;16.80;99.90;;;;;;2089149;28;20059;-69
2021/07/02 01:50:32;;;;;;;33.30;24.50;;;16.80;99.90;;;;;;2089251;28;20029;-69
2021/07/02 01:51:32;;;;;;;38.50;23.85;;;16.80;99.90;;;;;;2088544;28;20090;-69
2021/07/02 01:52:33;;;;;;;27.38;20.73;;;16.90;99.90;;;;;;2096836;28;20025;-69
2021/07/02 01:53:34;;;;;;;33.10;24.17;;;16.80;99.90;;;;;;2097021;28;20349;-69
2021/07/02 01:54:34;;;;;;;34.75;23.02;;;16.90;99.90;;;;;;2089430;28;20468;-69
2021/07/02 01:55:35;;;;;;;30.48;23.17;;;16.80;99.90;;;;;;2088896;28;20461;-69
2021/07/02 01:56:36;;;;;;;29.83;22.20;;;16.80;99.90;;;;;;2088792;28;20036;-69
2021/07/02 01:57:36;;;;;;;30.85;21.63;;;16.80;99.90;;;;;;2088537;28;20017;-69
2021/07/02 01:58:37;;;;;;;32.70;23.42;;;16.80;99.90;;;;;;2082239;28;20047;-69
2021/07/02 01:59:37;;;;;;;35.60;23.52;;;16.80;99.90;;;;;;2089368;28;20017;-69
2021/07/02 02:00:38;;;;;;;27.25;22.52;;;16.80;99.90;;;;;;2088739;28;20025;-69
2021/07/02 02:01:38;;;;;;;30.00;20.35;;;16.80;99.90;;;;;;2088779;28;20021;-69
2021/07/02 02:02:39;;;;;;;35.40;23.02;;;16.80;99.90;;;;;;2089082;28;20031;-69
2021/07/02 02:03:39;;;;;;;34.28;24.95;;;16.90;99.90;;;;;;2089229;28;20367;-69
2021/07/02 02:04:40;;;;;;;38.08;25.30;;;16.90;99.90;;;;;;2089306;28;20487;-69
2021/07/02 02:05:41;;;;;;;31.55;23.00;;;16.90;99.90;;;;;;2089202;28;20036;-69
2021/07/02 02:06:41;;;;;;;31.20;21.30;;;16.90;99.90;;;;;;2089119;28;20036;-69
2021/07/02 02:07:42;;;;;;;32.85;23.75;;;16.90;99.90;;;;;;2089386;28;20059;-69
2021/07/02 02:08:42;;;;;;;39.45;25.30;;;16.90;99.90;;;;;;2089161;28;20024;-68
2021/07/02 02:09:43;;;;;;;36.33;25.25;;;16.90;99.90;;;;;;2089189;28;20376;-69
2021/07/02 02:10:43;;;;;;;35.58;23.48;;;16.90;99.90;;;;;;2089016;28;20104;-69
2021/07/02 02:11:44;;;;;;;29.67;23.65;;;16.90;99.90;;;;;;2088760;28;20474;-69
2021/07/02 02:12:45;;;;;;;32.63;24.88;;;16.80;99.90;;;;;;2089025;28;20028;-69
2021/07/02 02:13:45;;;;;;;36.47;25.20;;;16.90;99.90;;;;;;2089373;28;20024;-69
2021/07/02 02:14:46;;;;;;;33.53;25.65;;;16.90;99.90;;;;;;2089029;28;20025;-69
2021/07/02 02:15:46;;;;;;;32.85;24.65;;;16.90;99.90;;;;;;2089243;28;20110;-69
2021/07/02 02:16:47;;;;;;;38.33;26.70;;;16.90;99.90;;;;;;2088381;28;20051;-69
2021/07/02 02:17:47;;;;;;;37.65;25.92;;;16.90;99.90;;;;;;2088670;28;20017;-69
2021/07/02 02:18:48;;;;;;;33.20;23.27;;;16.90;99.90;;;;;;2089101;28;20087;-69
2021/07/02 02:19:49;;;;;;;33.75;24.90;;;16.90;99.90;;;;;;2089040;28;20025;-69
2021/07/02 02:20:49;;;;;;;28.73;21.55;;;16.90;99.90;;;;;;2089168;28;20063;-69
2021/07/02 02:21:50;;;;;;;34.97;24.77;;;16.90;99.90;;;;;;2088670;28;20029;-68
2021/07/02 02:22:51;;;;;;;28.75;21.95;;;16.90;99.90;;;;;;2089106;28;20025;-69
2021/07/02 02:23:51;;;;;;;34.38;24.60;;;16.90;99.90;;;;;;2089268;28;20013;-69
2021/07/02 02:24:52;;;;;;;35.33;25.52;;;16.90;99.90;;;;;;2088935;28;20060;-69
2021/07/02 02:25:52;;;;;;;34.45;25.80;;;16.90;99.90;;;;;;2089114;28;20025;-69
2021/07/02 02:26:53;;;;;;;33.58;24.88;;;16.90;99.90;;;;;;2089086;28;20033;-69
2021/07/02 02:27:54;;;;;;;37.70;26.60;;;16.90;99.90;;;;;;2089041;28;20040;-69
2021/07/02 02:28:54;;;;;;;39.40;26.38;;;16.90;99.90;;;;;;2089037;28;20043;-69
2021/07/02 02:29:55;;;;;;;28.30;21.65;;;16.90;99.90;;;;;;2089357;28;20100;-69
2021/07/02 02:30:55;;;;;;;39.15;26.92;;;16.90;99.90;;;;;;2089195;28;20112;-69
2021/07/02 02:31:56;;;;;;;33.47;24.23;;;16.90;99.90;;;;;;2088674;28;20029;-69
2021/07/02 02:32:57;;;;;;;39.88;27.15;;;16.80;99.90;;;;;;2089256;28;20380;-68
2021/07/02 02:33:58;;;;;;;39.55;26.15;;;16.90;99.90;;;;;;2089227;28;20025;-69
2021/07/02 02:34:59;;;;;;;44.92;28.08;;;16.90;99.90;;;;;;2088790;28;20032;-69
2021/07/02 02:35:59;;;;;;;41.30;26.83;;;16.80;99.90;;;;;;2089098;28;20032;-69
2021/07/02 02:37:00;;;;;;;30.75;21.02;;;16.90;99.90;;;;;;2089115;28;20476;-69
2021/07/02 02:38:01;;;;;;;36.38;25.90;;;16.90;99.90;;;;;;2089072;28;20021;-69
2021/07/02 02:39:04;;;;;;;38.20;24.67;;;16.90;99.90;;;;;;2089162;28;20501;-69
2021/07/02 02:40:07;;;;;;;37.30;27.40;;;16.90;99.90;;;;;;2089615;28;20029;-69
2021/07/02 02:41:07;;;;;;;37.22;24.38;;;16.90;99.90;;;;;;2090753;28;20464;-69
2021/07/02 02:42:08;;;;;;;34.30;25.33;;;16.90;99.90;;;;;;2090325;28;20676;-69
2021/07/02 02:43:09;;;;;;;39.45;27.35;;;16.90;99.90;;;;;;2090850;28;20116;-69
2021/07/02 02:44:09;;;;;;;35.08;25.50;;;16.80;99.90;;;;;;2090498;28;20037;-69
2021/07/02 02:45:10;;;;;;;30.35;22.92;;;16.90;99.90;;;;;;2090971;28;20029;-69
2021/07/02 02:46:11;;;;;;;36.58;24.88;;;16.90;99.90;;;;;;2090279;28;20103;-69
2021/07/02 02:47:11;;;;;;;36.92;25.20;;;16.90;99.90;;;;;;2090819;28;20074;-69
2021/07/02 02:48:12;;;;;;;41.10;27.63;;;16.90;99.90;;;;;;2090552;28;20064;-69
2021/07/02 02:49:12;;;;;;;23.48;18.23;;;16.90;99.90;;;;;;2090897;28;20025;-69
2021/07/02 02:50:13;;;;;;;33.25;25.30;;;16.90;99.90;;;;;;2090462;28;20032;-69
2021/07/02 02:51:14;;;;;;;33.60;23.85;;;16.90;99.90;;;;;;2090476;28;20028;-69
2021/07/02 02:52:14;;;;;;;38.92;28.63;;;16.90;99.90;;;;;;2090174;28;20390;-69
2021/07/02 02:53:15;;;;;;;40.10;27.20;;;16.90;99.90;;;;;;2090773;28;20035;-69
2021/07/02 02:54:16;;;;;;;38.08;26.35;;;16.90;99.90;;;;;;2090258;28;20032;-69
2021/07/02 02:55:16;;;;;;;42.28;26.98;;;16.90;99.90;;;;;;2089986;28;20514;-69
2021/07/02 02:56:17;;;;;;;46.35;27.20;;;16.90;99.90;;;;;;2089876;28;20392;-69
2021/07/02 02:57:18;;;;;;;41.83;27.38;;;16.90;99.90;;;;;;2090749;28;20021;-69
2021/07/02 02:58:18;;;;;;;40.13;28.85;;;16.90;99.90;;;;;;2089841;28;20028;-69
2021/07/02 02:59:19;;;;;;;38.35;26.35;;;16.90;99.90;;;;;;2090028;28;20025;-69
2021/07/02 03:00:19;;;;;;;36.63;27.85;;;16.90;99.90;;;;;;2089729;28;20408;-69
2021/07/02 03:01:20;;;;;;;37.15;24.92;;;16.90;99.90;;;;;;2089984;28;20029;-69
2021/07/02 03:02:20;;;;;;;36.33;26.65;;;16.90;99.90;;;;;;2089858;28;20029;-69
2021/07/02 03:03:21;;;;;;;36.85;26.48;;;16.90;99.90;;;;;;2090548;28;20096;-69
2021/07/02 03:04:22;;;;;;;39.03;27.58;;;16.90;99.90;;;;;;2090180;28;20036;-69
2021/07/02 03:05:23;;;;;;;36.40;25.08;;;16.90;99.90;;;;;;2090414;28;20017;-69
2021/07/02 03:06:23;;;;;;;37.38;24.13;;;16.90;99.90;;;;;;2090430;28;20025;-69
2021/07/02 03:07:24;;;;;;;38.75;26.77;;;16.80;99.90;;;;;;2090724;28;20031;-69
2021/07/02 03:08:24;;;;;;;36.25;26.75;;;16.80;99.90;;;;;;2090351;28;20373;-69
2021/07/02 03:09:25;;;;;;;34.47;24.77;;;16.80;99.90;;;;;;2090600;28;20021;-69
2021/07/02 03:10:25;;;;;;;36.25;26.55;;;16.80;99.90;;;;;;2092191;28;20748;-69
2021/07/02 03:11:26;;;;;;;40.97;26.23;;;16.80;99.90;;;;;;2092712;28;20013;-69
2021/07/02 03:12:26;;;;;;;33.58;25.38;;;16.80;99.90;;;;;;2093105;28;20039;-69
2021/07/02 03:13:27;;;;;;;37.17;25.52;;;16.80;99.90;;;;;;2097965;28;20052;-69
2021/07/02 03:14:28;;;;;;;39.45;26.38;;;16.80;99.90;;;;;;2098883;28;20529;-69
2021/07/02 03:15:28;;;;;;;35.22;24.20;;;16.80;99.90;;;;;;2091870;28;20021;-69
2021/07/02 03:16:30;;;;;;;36.92;25.60;;;16.80;99.90;;;;;;2090403;28;20025;-69
2021/07/02 03:17:31;;;;;;;39.83;24.50;;;16.80;99.90;;;;;;2090071;28;20035;-68
2021/07/02 03:18:32;;;;;;;37.42;25.50;;;16.80;99.90;;;;;;2090491;28;20021;-69
2021/07/02 03:19:32;;;;;;;34.15;24.98;;;16.80;99.90;;;;;;2090408;28;20045;-69
2021/07/02 03:20:33;;;;;;;33.92;25.17;;;16.80;99.90;;;;;;2093816;28;20032;-69
2021/07/02 03:21:33;;;;;;;41.42;25.85;;;16.70;99.90;;;;;;2093949;28;20025;-69
2021/07/02 03:22:34;;;;;;;35.30;25.08;;;16.70;99.90;;;;;;2093923;28;20103;-69
2021/07/02 03:23:35;;;;;;;40.83;24.05;;;16.70;99.90;;;;;;2090962;28;20028;-69
2021/07/02 03:24:36;;;;;;;36.88;26.50;;;16.70;99.90;;;;;;2090441;28;20064;-69
2021/07/02 03:25:36;;;;;;;36.38;22.42;;;16.70;99.90;;;;;;2090361;28;20487;-69
2021/07/02 03:26:37;;;;;;;35.55;23.08;;;16.80;99.90;;;;;;2090437;28;20032;-69
2021/07/02 03:27:38;;;;;;;37.75;25.38;;;16.70;99.90;;;;;;2090239;28;20043;-69
2021/07/02 03:28:39;;;;;;;37.13;23.02;;;16.70;99.90;;;;;;2098559;28;20082;-68
2021/07/02 03:29:39;;;;;;;34.10;23.50;;;16.70;99.90;;;;;;2098466;28;20540;-69
2021/07/02 03:30:40;;;;;;;28.23;22.40;;;16.70;99.90;;;;;;2098858;28;20028;-69
2021/07/02 03:31:41;;;;;;;27.38;21.15;;;16.70;99.90;;;;;;2097779;28;20036;-69
2021/07/02 03:32:42;;;;;;;32.38;21.60;;;16.70;99.90;;;;;;2098598;28;20551;-69
2021/07/02 03:33:42;;;;;;;39.45;24.05;;;16.70;99.90;;;;;;2098476;28;20020;-69
2021/07/02 03:34:44;;;;;;;36.80;24.50;;;16.70;99.90;;;;;;2098597;28;20024;-68
2021/07/02 03:35:45;;;;;;;36.90;24.30;;;16.70;99.90;;;;;;2098107;28;20074;-69
2021/07/02 03:36:45;;;;;;;35.65;24.17;;;16.70;99.90;;;;;;2090286;28;20078;-69
2021/07/02 03:37:46;;;;;;;37.78;24.55;;;16.70;99.90;;;;;;2090319;28;20025;-69
2021/07/02 03:38:47;;;;;;;39.45;24.17;;;16.70;99.90;;;;;;2090534;28;20017;-69
2021/07/02 03:39:47;;;;;;;34.42;24.45;;;16.70;99.90;;;;;;2089931;28;20071;-69
2021/07/02 03:40:48;;;;;;;35.58;23.55;;;16.70;99.90;;;;;;2090424;28;20661;-69
2021/07/02 03:41:48;;;;;;;40.33;24.80;;;16.70;99.90;;;;;;2089830;28;20029;-69
2021/07/02 03:42:49;;;;;;;35.05;23.48;;;16.70;99.90;;;;;;2090280;28;20033;-69
2021/07/02 03:43:49;;;;;;;33.25;19.90;;;16.70;99.90;;;;;;2090074;28;20481;-69
2021/07/02 03:44:50;;;;;;;33.67;23.85;;;16.70;99.90;;;;;;2090387;28;20017;-69
2021/07/02 03:45:51;;;;;;;42.58;25.17;;;16.70;99.90;;;;;;2090304;28;20053;-69
2021/07/02 03:46:51;;;;;;;39.53;26.85;;;16.70;99.90;;;;;;2090253;28;20029;-69
2021/07/02 03:47:52;;;;;;;34.88;21.42;;;16.70;99.90;;;;;;2090243;28;20025;-69
2021/07/02 03:48:52;;;;;;;33.70;22.60;;;16.70;99.90;;;;;;2090210;28;20529;-69
2021/07/02 03:49:53;;;;;;;31.08;22.38;;;16.70;99.90;;;;;;2090397;28;20036;-69
2021/07/02 03:50:53;;;;;;;32.22;23.30;;;16.70;99.90;;;;;;2089714;28;20025;-69
2021/07/02 03:51:54;;;;;;;30.45;22.40;;;16.70;99.90;;;;;;2088626;28;20088;-69
2021/07/02 03:52:55;;;;;;;35.70;22.92;;;16.70;99.90;;;;;;2090262;28;20096;-69
2021/07/02 03:53:56;;;;;;;30.20;22.65;;;16.70;99.90;;;;;;2090000;28;20021;-69
2021/07/02 03:54:56;;;;;;;38.20;23.60;;;16.80;99.90;;;;;;2090023;28;20025;-69
2021/07/02 03:55:57;;;;;;;34.40;23.45;;;16.70;99.90;;;;;;2090384;28;20104;-69
2021/07/02 03:57:13;;;;;;;28.98;21.48;;;16.80;99.90;;;;;;2090146;28;20025;-69
2021/07/02 03:58:13;;;;;;;32.13;22.33;;;16.80;99.90;;;;;;2090471;28;20387;-69
2021/07/02 03:59:14;;;;;;;28.88;20.55;;;16.80;99.90;;;;;;2090052;28;20375;-69
2021/07/02 04:00:15;;;;;;;32.83;22.92;;;16.80;99.90;;;;;;2090188;28;20040;-69
2021/07/02 04:01:16;;;;;;;33.95;23.08;;;16.80;99.90;;;;;;2089352;28;20033;-69
2021/07/02 04:02:18;;;;;;;28.50;20.20;;;16.80;99.90;;;;;;2088952;28;20025;-69
2021/07/02 04:03:18;;;;;;;35.58;24.02;;;16.80;99.90;;;;;;2089898;28;20488;-69
2021/07/02 04:04:19;;;;;;;36.35;21.83;;;16.80;99.90;;;;;;2090065;28;20381;-69
2021/07/02 04:05:19;;;;;;;31.13;21.63;;;16.80;99.90;;;;;;2089854;28;20029;-69
2021/07/02 04:06:20;;;;;;;34.25;22.77;;;16.80;99.90;;;;;;2090130;28;20032;-69
2021/07/02 04:07:24;;;;;;;29.33;21.60;;;16.80;99.90;;;;;;2089966;28;20083;-69
2021/07/02 04:08:25;;;;;;;34.63;23.55;;;16.80;99.90;;;;;;2090312;28;20013;-69
2021/07/02 04:09:25;;;;;;;30.17;21.42;;;16.80;99.90;;;;;;2089963;28;20060;-69
2021/07/02 04:10:26;;;;;;;30.30;21.67;;;16.80;99.90;;;;;;2089849;28;20071;-69
2021/07/02 04:11:26;;;;;;;32.10;22.65;;;16.80;99.90;;;;;;2089596;28;20021;-69
2021/07/02 04:12:27;;;;;;;34.22;23.88;;;16.80;99.90;;;;;;2089783;28;20108;-69
2021/07/02 04:13:27;;;;;;;31.45;22.98;;;16.80;99.90;;;;;;2089524;28;20405;-69
2021/07/02 04:14:29;;;;;;;24.90;17.20;;;16.80;99.90;;;;;;2089851;28;20035;-69
2021/07/02 04:15:30;;;;;;;34.40;23.40;;;16.90;99.90;;;;;;2089738;28;20481;-69
2021/07/02 04:16:31;;;;;;;35.80;22.88;;;16.90;99.90;;;;;;2090006;28;20017;-69
2021/07/02 04:17:31;;;;;;;27.90;19.02;;;16.90;99.90;;;;;;2089764;28;20361;-69
2021/07/02 04:18:32;;;;;;;30.98;22.13;;;16.90;99.90;;;;;;2089984;28;20029;-69
2021/07/02 04:19:32;;;;;;;30.27;21.48;;;16.90;99.90;;;;;;2089929;28;20027;-69
2021/07/02 04:20:33;;;;;;;32.90;22.02;;;16.90;99.90;;;;;;2089939;28;20028;-69
2021/07/02 04:21:34;;;;;;;27.40;20.08;;;16.90;99.90;;;;;;2088842;28;20025;-69
2021/07/02 04:22:36;;;;;;;40.42;22.98;;;16.90;99.90;;;;;;2090023;28;20021;-69
2021/07/02 04:23:36;;;;;;;32.47;22.50;;;16.90;99.90;;;;;;2089899;28;20031;-69
2021/07/02 04:24:37;;;;;;;29.55;21.17;;;16.90;99.90;;;;;;2090025;28;20032;-69
2021/07/02 04:25:37;;;;;;;29.95;21.17;;;17.00;99.90;;;;;;2089915;28;20093;-69
2021/07/02 04:26:38;;;;;;;30.80;22.38;;;16.90;99.90;;;;;;2090000;28;20021;-69
2021/07/02 04:27:40;;;;;;;31.17;22.27;;;17.00;99.90;;;;;;2089217;28;20025;-69
2021/07/02 04:28:41;;;;;;;30.13;21.40;;;17.00;99.90;;;;;;2089095;28;20017;-69
2021/07/02 04:29:43;;;;;;;34.38;21.85;;;17.00;99.90;;;;;;2089592;28;20064;-69
2021/07/02 04:30:43;;;;;;;33.30;22.67;;;17.00;99.90;;;;;;2090000;28;20524;-69
2021/07/02 04:31:44;;;;;;;33.85;23.02;;;17.00;99.90;;;;;;2089302;28;20378;-69
2021/07/02 04:32:44;;;;;;;33.95;24.52;;;17.00;99.90;;;;;;2089789;28;20071;-69
2021/07/02 04:33:45;;;;;;;33.65;23.35;;;17.00;99.90;;;;;;2089998;28;20079;-69
2021/07/02 04:34:46;;;;;;;30.30;21.05;;;17.00;99.90;;;;;;2089896;28;20464;-69
2021/07/02 04:35:46;;;;;;;29.75;19.65;;;17.00;99.90;;;;;;2089855;28;20035;-69
2021/07/02 04:36:47;;;;;;;33.35;20.45;;;17.00;99.90;;;;;;2089928;28;20099;-69
2021/07/02 04:37:48;;;;;;;28.98;21.17;;;17.00;99.90;;;;;;2089846;28;20440;-69
2021/07/02 04:38:48;;;;;;;30.52;20.60;;;17.00;99.90;;;;;;2089665;28;20541;-69
2021/07/02 04:39:49;;;;;;;27.92;19.85;;;17.00;99.90;;;;;;2089962;28;20036;-69
2021/07/02 04:40:50;;;;;;;31.45;21.75;;;17.00;99.90;;;;;;2089383;28;20104;-69
2021/07/02 04:41:50;;;;;;;39.13;21.77;;;17.00;99.90;;;;;;2089336;28;20039;-69
2021/07/02 04:42:51;;;;;;;31.33;22.15;;;17.00;99.90;;;;;;2089599;28;20074;-69
2021/07/02 04:43:51;;;;;;;34.17;23.33;;;17.00;99.90;;;;;;2089976;28;20029;-69
2021/07/02 04:44:52;;;;;;;32.47;22.80;;;17.00;99.90;;;;;;2089597;28;20025;-69
2021/07/02 04:45:52;;;;;;;31.88;20.42;;;17.00;99.90;;;;;;2090050;28;20096;-69
2021/07/02 04:46:53;;;;;;;34.03;21.73;;;17.10;99.90;;;;;;2089848;28;20024;-68
2021/07/02 04:47:54;;;;;;;27.05;20.38;;;17.10;99.90;;;;;;2089553;28;20105;-69
2021/07/02 04:48:54;;;;;;;32.63;21.13;;;17.00;99.90;;;;;;2089774;28;20052;-69
2021/07/02 04:49:55;;;;;;;34.53;21.60;;;17.00;99.90;;;;;;2089983;28;20415;-69
2021/07/02 04:50:55;;;;;;;29.73;20.58;;;17.00;99.90;;;;;;2089792;28;20021;-69
2021/07/02 04:51:56;;;;;;;30.60;21.63;;;17.00;99.90;;;;;;2089310;28;20096;-69
2021/07/02 04:52:57;;;;;;;35.42;22.38;;;17.00;99.90;;;;;;2089372;28;20507;-69
2021/07/02 04:53:57;;;;;;;33.90;22.05;;;17.10;99.90;;;;;;2089970;28;20025;-69
2021/07/02 04:54:58;;;;;;;30.95;20.50;;;17.00;99.90;;;;;;2089603;28;20021;-68
2021/07/02 04:55:58;;;;;;;25.73;20.35;;;17.10;99.90;;;;;;2089619;28;20508;-69
2021/07/02 04:57:00;;;;;;;35.15;20.75;;;17.00;99.90;;;;;;2089590;28;20104;-69
2021/07/02 04:58:03;;;;;;;36.58;21.92;;;17.00;99.90;;;;;;2089753;28;20017;-69
2021/07/02 04:59:04;;;;;;;31.45;21.38;;;17.00;99.90;;;;;;2089421;28;20029;-69
2021/07/02 05:00:06;;;;;;;32.13;20.73;;;17.00;99.90;;;;;;2089717;28;20456;-69
2021/07/02 05:01:06;;;;;;;30.30;18.85;;;17.00;99.90;;;;;;2089751;28;20029;-69
2021/07/02 05:02:07;;;;;;;29.33;19.92;;;17.00;99.90;;;;;;2089121;28;20061;-69
2021/07/02 05:03:08;;;;;;;30.27;20.90;;;17.00;99.90;;;;;;2089319;28;20424;-69
2021/07/02 05:04:08;;;;;;;27.83;20.13;;;17.00;99.90;;;;;;2089634;28;20036;-69
2021/07/02 05:05:09;;;;;;;28.70;19.05;;;17.00;99.90;;;;;;2089355;28;20025;-69
2021/07/02 05:06:10;;;;;;;38.00;21.15;;;17.00;99.90;;;;;;2089843;28;20326;-69
2021/07/02 05:07:12;;;;;;;25.77;16.48;;;17.00;99.90;;;;;;2089587;28;20036;-69
2021/07/02 05:08:13;;;;;;;27.15;19.90;;;17.00;99.90;;;;;;2097045;28;20115;-69
2021/07/02 05:09:14;;;;;;;30.00;21.10;;;17.00;99.90;;;;;;2097322;28;20036;-69